This is the latest recevied weather packets stored in our database for station/object EB1BWO-11. If no packets are shown the sender has not sent any weather packets the latest 10 day(s).
| Time | Temp. | Humidity | Pressure | Rain* | Wind** | Luminosity | Snow |
|---|---|---|---|---|---|---|---|
| 1777832780 | 14.44° C | 80% | 1015.1 hPa | - | - | - | - |
| 1777831883 | 14.44° C | 79% | 1014.9 hPa | - | - | - | - |
| 1777830980 | 15.56° C | 78% | 1014.7 hPa | - | - | - | - |
| 1777830080 | 15.56° C | 77% | 1014.5 hPa | - | - | - | - |
| 1777829180 | 16.11° C | 77% | 1014.5 hPa | - | - | - | - |
| 1777828280 | 16.11° C | 76% | 1014.3 hPa | - | - | - | - |
| 1777827380 | 16.67° C | 75% | 1014.2 hPa | - | - | - | - |
| 1777826479 | 17.22° C | 72% | 1014.3 hPa | - | - | - | - |
| 1777825579 | 18.33° C | 72% | 1014.1 hPa | - | - | - | - |
| 1777824679 | 20° C | 69% | 1014 hPa | - | - | - | - |
| 1777823779 | 20° C | 68% | 1014 hPa | - | - | - | - |
| 1777822879 | 20° C | 68% | 1014.1 hPa | - | - | - | - |
| 1777821979 | 21.67° C | 66% | 1014.3 hPa | - | - | - | - |
| 1777821078 | 21.67° C | 66% | 1014.4 hPa | - | - | - | - |
| 1777820178 | 19.44° C | 69% | 1014.4 hPa | - | - | - | - |
| 1777819278 | 17.78° C | 75% | 1014.7 hPa | - | - | - | - |
| 1777818378 | 18.33° C | 73% | 1014.6 hPa | - | - | - | - |
| 1777817478 | 20.56° C | 67% | 1014.6 hPa | - | - | - | - |
| 1777816578 | 24.44° C | 60% | 1014.6 hPa | - | - | - | - |
| 1777815678 | 18.33° C | 75% | 1014.8 hPa | - | - | - | - |
| 1777814778 | 20.56° C | 68% | 1014.6 hPa | - | - | - | - |
| 1777813877 | 25.56° C | 57% | 1014.3 hPa | - | - | - | - |
| 1777812977 | 32.78° C | 43% | 1014.4 hPa | - | - | - | - |
| 1777812077 | 28.89° C | 53% | 1014.4 hPa | - | - | - | - |
| 1777811177 | 22.22° C | 65% | 1014.5 hPa | - | - | - | - |
* Rain since midnight (hover to see other rain measurements)
** Current wind speed in m/s (hover to see current wind gust speed)